| time (UTC) | temp F | wind direction | speed MPH | gust MPH | rain 1hr in | rain 24hr in | rain mn in | humidity % | barometer mb |
| 20260903133825 | 76 | 209 | 2.0 | 2.0 | 0.00 | 0.00 | 0.00 | 76 | 1010.9 |
| 20260903133322 | 76 | 148 | 3.0 | 5.0 | 0.00 | 0.00 | 0.00 | 76 | 1011.0 |
| 20260903132816 | 76 | 176 | 2.0 | 2.0 | 0.00 | 0.00 | 0.00 | 77 | 1010.9 |
| 20260903132312 | 76 | 164 | 1.0 | 3.0 | 0.00 | 0.00 | 0.00 | 77 | 1010.9 |
| 20260903131807 | 76 | 174 | 1.0 | 3.0 | 0.00 | 0.00 | 0.00 | 77 | 1010.9 |
| 20260903131306 | 75 | 182 | 2.0 | 3.0 | 0.00 | 0.00 | 0.00 | 78 | 1010.8 |
| 20260903130801 | 75 | 156 | 3.0 | 5.0 | 0.00 | 0.00 | 0.00 | 79 | 1010.7 |
| 20260903130256 | 75 | 171 | 1.0 | 2.0 | 0.00 | 0.00 | 0.00 | 79 | 1010.8 |
| 20260903125754 | 75 | 180 | 1.0 | 1.0 | 0.00 | 0.00 | 0.00 | 79 | 1010.7 |
| 20260903125250 | 75 | 190 | 1.0 | 2.0 | 0.00 | 0.00 | 0.00 | 79 | 1010.5 |
| 20260903124749 | 75 | 200 | 2.0 | 6.0 | 0.00 | 0.00 | 0.00 | 79 | 1010.6 |
| 20260903124245 | 75 | 177 | 0.0 | 5.0 | 0.00 | 0.00 | 0.00 | 79 | 1010.7 |
| 20260903123743 | 75 | 141 | 1.0 | 1.0 | 0.00 | 0.00 | 0.00 | 80 | 1010.3 |
| 20260903123243 | 75 | 174 | 0.0 | 1.0 | 0.00 | 0.00 | 0.00 | 80 | 1010.1 |
| 20260903122741 | 75 | 159 | 1.0 | 2.0 | 0.00 | 0.00 | 0.00 | 80 | 1010.2 |
| 20260903122236 | 75 | 173 | 1.0 | 1.0 | 0.00 | 0.00 | 0.00 | 82 | 1010.0 |
| 20260903121734 | 75 | 149 | 2.0 | 2.0 | 0.00 | 0.00 | 0.00 | 83 | 1010.0 |
| 20260903121231 | 75 | 140 | 2.0 | 3.0 | 0.00 | 0.00 | 0.00 | 83 | 1010.0 |
| 20260903120730 | 75 | 198 | 0.0 | 2.0 | 0.00 | 0.00 | 0.00 | 83 | 1010.2 |
| 20260903120224 | 74 | 221 | 1.0 | 2.0 | 0.00 | 0.00 | 0.00 | 84 | 1010.2 |
| 20260903115723 | 74 | 187 | 1.0 | 2.0 | 0.00 | 0.00 | 0.00 | 85 | 1010.3 |
| 20260903115218 | 74 | 169 | 2.0 | 5.0 | 0.00 | 0.00 | 0.00 | 87 | 1010.5 |
| 20260903114713 | 74 | 205 | 1.0 | 2.0 | 0.00 | 0.00 | 0.00 | 87 | 1010.9 |
| 20260903114209 | 75 | 208 | 1.0 | 2.0 | 0.00 | 0.00 | 0.00 | 87 | 1010.8 |
| 20260903113703 | 74 | 272 | 3.0 | 5.0 | 0.00 | 0.00 | 0.00 | 87 | 1011.1 |
| 20260903113200 | 74 | 189 | 3.0 | 6.0 | 0.00 | 0.00 | 0.00 | 89 | 1011.0 |
| 20260903112655 | 74 | 206 | 0.0 | 0.0 | 0.00 | 0.00 | 0.00 | 90 | 1010.8 |
| 20260903112150 | 73 | 198 | 0.0 | 0.0 | 0.00 | 0.00 | 0.00 | 89 | 1010.9 |
| 20260903111649 | 73 | 202 | 0.0 | 0.0 | 0.00 | 0.00 | 0.00 | 89 | 1010.9 |
| 20260903111145 | 74 | 202 | 0.0 | 0.0 | 0.00 | 0.00 | 0.00 | 89 | 1010.9 |
| 20260903110641 | 74 | 194 | 0.0 | 0.0 | 0.00 | 0.00 | 0.00 | 88 | 1010.6 |
| 20260903110137 | 74 | 195 | 0.0 | 0.0 | 0.00 | 0.00 | 0.00 | 88 | 1010.5 |
| 20260903105631 | 74 | 179 | 0.0 | 0.0 | 0.00 | 0.00 | 0.00 | 88 | 1010.6 |
| 20260903105126 | 73 | 188 | 0.0 | 0.0 | 0.00 | 0.00 | 0.00 | 89 | 1010.9 |
| 20260903104625 | 73 | 187 | 0.0 | 0.0 | 0.00 | 0.00 | 0.00 | 89 | 1010.7 |
| 20260903104121 | 73 | 194 | 0.0 | 2.0 | 0.00 | 0.00 | 0.00 | 90 | 1010.8 |
| 20260903103616 | 73 | 155 | 1.0 | 1.0 | 0.00 | 0.00 | 0.00 | 90 | 1011.1 |
| 20260903103113 | 73 | 200 | 1.0 | 1.0 | 0.00 | 0.00 | 0.00 | 90 | 1011.2 |
| 20260903102608 | 73 | 194 | 0.0 | 0.0 | 0.00 | 0.00 | 0.00 | 90 | 1010.4 |
| 20260903102107 | 73 | 186 | 0.0 | 0.0 | 0.00 | 0.00 | 0.00 | 90 | 1010.5 |
| 20260903101601 | 73 | 190 | 0.0 | 0.0 | 0.00 | 0.00 | 0.00 | 90 | 1010.6 |
| 20260903101057 | 73 | 191 | 0.0 | 1.0 | 0.00 | 0.00 | 0.00 | 90 | 1010.6 |
| 20260903100557 | 72 | 162 | 1.0 | 2.0 | 0.00 | 0.00 | 0.00 | 91 | 1010.3 |
| 20260903100056 | 72 | 176 | 0.0 | 0.0 | 0.00 | 0.00 | 0.00 | 91 | 1010.8 |
| 20260903095554 | 72 | 185 | 0.0 | 0.0 | 0.00 | 0.00 | 0.00 | 91 | 1010.7 |
| 20260903095049 | 72 | 199 | 1.0 | 1.0 | 0.00 | 0.00 | 0.00 | 92 | 1010.8 |
| 20260903094549 | 72 | 186 | 0.0 | 0.0 | 0.00 | 0.00 | 0.00 | 91 | 1010.7 |
| 20260903094044 | 72 | 171 | 0.0 | 0.0 | 0.00 | 0.00 | 0.00 | 91 | 1010.6 |
| 20260903093539 | 72 | 169 | 1.0 | 2.0 | 0.00 | 0.00 | 0.00 | 91 | 1010.5 |
| 20260903093035 | 72 | 170 | 0.0 | 0.0 | 0.00 | 0.00 | 0.00 | 91 | 1010.6 |
| 20260903092534 | 72 | 170 | 0.0 | 0.0 | 0.00 | 0.00 | 0.00 | 91 | 1010.6 |
| 20260903092029 | 72 | 170 | 0.0 | 0.0 | 0.00 | 0.00 | 0.00 | 91 | 1010.6 |
| 20260903091526 | 72 | 171 | 0.0 | 0.0 | 0.00 | 0.00 | 0.00 | 91 | 1010.5 |
| 20260903091021 | 72 | 171 | 0.0 | 0.0 | 0.00 | 0.00 | 0.00 | 91 | 1010.3 |
| 20260903090518 | 72 | 170 | 0.0 | 0.0 | 0.00 | 0.00 | 0.00 | 91 | 1010.2 |
| 20260903090016 | 72 | 171 | 0.0 | 0.0 | 0.00 | 0.00 | 0.00 | 91 | 1010.2 |
| 20260903085514 | 72 | 171 | 0.0 | 0.0 | 0.00 | 0.00 | 0.00 | 91 | 1010.3 |
| 20260903085010 | 72 | 170 | 0.0 | 0.0 | 0.00 | 0.00 | 0.00 | 91 | 1010.3 |
| 20260903084508 | 72 | 170 | 0.0 | 0.0 | 0.00 | 0.00 | 0.00 | 90 | 1010.2 |
| 20260903084004 | 72 | 170 | 0.0 | 0.0 | 0.00 | 0.00 | 0.00 | 90 | 1010.4 |
| 20260903083459 | 72 | 170 | 0.0 | 0.0 | 0.00 | 0.00 | 0.00 | 90 | 1010.4 |
| 20260903082959 | 72 | 171 | 0.0 | 0.0 | 0.00 | 0.00 | 0.00 | 90 | 1010.4 |
| 20260903082453 | 73 | 171 | 0.0 | 0.0 | 0.00 | 0.00 | 0.00 | 90 | 1010.4 |
| 20260903081948 | 73 | 171 | 0.0 | 0.0 | 0.00 | 0.00 | 0.00 | 89 | 1010.7 |
| 20260903081444 | 73 | 171 | 0.0 | 0.0 | 0.00 | 0.00 | 0.00 | 89 | 1010.6 |
| 20260903080940 | 73 | 171 | 0.0 | 0.0 | 0.00 | 0.00 | 0.00 | 89 | 1010.6 |
| 20260903080436 | 73 | 171 | 0.0 | 0.0 | 0.00 | 0.00 | 0.00 | 89 | 1010.7 |
| 20260903075931 | 73 | 170 | 0.0 | 0.0 | 0.00 | 0.00 | 0.00 | 89 | 1010.7 |
| 20260903075427 | 73 | 171 | 0.0 | 0.0 | 0.00 | 0.00 | 0.00 | 89 | 1010.7 |
| 20260903074921 | 73 | 171 | 0.0 | 0.0 | 0.00 | 0.00 | 0.00 | 89 | 1010.8 |
| 20260903074415 | 73 | 171 | 0.0 | 0.0 | 0.00 | 0.00 | 0.00 | 89 | 1010.6 |
| 20260903073910 | 73 | 171 | 0.0 | 0.0 | 0.00 | 0.00 | 0.00 | 88 | 1010.6 |
| 20260903073405 | 73 | 171 | 0.0 | 0.0 | 0.00 | 0.00 | 0.00 | 88 | 1010.7 |
| 20260903072901 | 73 | 171 | 0.0 | 0.0 | 0.00 | 0.00 | 0.00 | 88 | 1011.0 |
| 20260903072357 | 73 | 171 | 0.0 | 0.0 | 0.00 | 0.00 | 0.00 | 88 | 1010.9 |
| 20260903071854 | 73 | 171 | 0.0 | 0.0 | 0.00 | 0.00 | 0.00 | 87 | 1010.9 |
| 20260903071349 | 74 | 171 | 0.0 | 0.0 | 0.00 | 0.00 | 0.00 | 87 | 1011.1 |
| 20260903070845 | 74 | 171 | 0.0 | 0.0 | 0.00 | 0.00 | 0.00 | 87 | 1011.1 |
| 20260903070339 | 74 | 170 | 0.0 | 0.0 | 0.00 | 0.00 | 0.00 | 87 | 1010.9 |
| 20260903065834 | 74 | 170 | 0.0 | 0.0 | 0.00 | 0.00 | 0.00 | 87 | 1011.0 |
| 20260903065333 | 74 | 171 | 0.0 | 0.0 | 0.00 | 0.00 | 0.00 | 87 | 1011.1 |
| 20260903064832 | 74 | 171 | 0.0 | 0.0 | 0.00 | 0.00 | 0.00 | 86 | 1011.2 |
| 20260903064329 | 74 | 170 | 0.0 | 1.0 | 0.00 | 0.00 | 0.00 | 86 | 1011.2 |
| 20260903063824 | 74 | 171 | 0.0 | 0.0 | 0.00 | 0.00 | 0.00 | 86 | 1011.2 |
| 20260903063318 | 74 | 171 | 0.0 | 0.0 | 0.00 | 0.00 | 0.00 | 86 | 1011.2 |
| 20260903062809 | 75 | 171 | 0.0 | 0.0 | 0.00 | 0.00 | 0.00 | 86 | 1011.1 |
| 20260903062308 | 75 | 171 | 0.0 | 0.0 | 0.00 | 0.00 | 0.00 | 86 | 1011.0 |
| 20260903061805 | 75 | 171 | 0.0 | 0.0 | 0.00 | 0.00 | 0.00 | 85 | 1011.1 |
| 20260903061257 | 75 | 171 | 0.0 | 0.0 | 0.00 | 0.00 | 0.00 | 85 | 1011.2 |
| 20260903060753 | 75 | 171 | 0.0 | 0.0 | 0.00 | 0.00 | 0.00 | 85 | 1011.2 |
| 20260903060247 | 75 | 171 | 0.0 | 0.0 | 0.00 | 0.00 | 0.00 | 84 | 1011.2 |
| 20260903055739 | 75 | 171 | 0.0 | 0.0 | 0.00 | 0.00 | 0.00 | 84 | 1011.2 |
| 20260903055238 | 76 | 171 | 0.0 | 0.0 | 0.00 | 0.00 | 0.00 | 84 | 1011.3 |
| 20260903054732 | 76 | 171 | 0.0 | 0.0 | 0.00 | 0.00 | 0.00 | 84 | 1011.1 |
| 20260903054227 | 76 | 171 | 0.0 | 0.0 | 0.00 | 0.00 | 0.00 | 83 | 1011.3 |
| 20260903053724 | 76 | 171 | 0.0 | 0.0 | 0.00 | 0.00 | 0.00 | 83 | 1011.3 |
| 20260903053219 | 76 | 171 | 0.0 | 0.0 | 0.00 | 0.00 | 0.00 | 82 | 1011.0 |
| 20260903052714 | 77 | 171 | 0.0 | 1.0 | 0.00 | 0.00 | 0.00 | 82 | 1011.1 |
| 20260903052210 | 77 | 170 | 0.0 | 0.0 | 0.00 | 0.00 | 0.00 | 82 | 1011.3 |
| 20260903051705 | 77 | 169 | 0.0 | 1.0 | 0.00 | 0.00 | 0.00 | 82 | 1011.1 |
| 20260903051201 | 77 | 177 | 0.0 | 0.0 | 0.00 | 0.00 | 0.00 | 82 | 1011.0 |
| 20260903050656 | 77 | 169 | 0.0 | 0.0 | 0.00 | 0.00 | 0.00 | 82 | 1011.0 |
| 20260903050155 | 77 | 145 | 2.0 | 2.0 | 0.00 | 0.00 | 0.00 | 82 | 1011.0 |
| 20260903045649 | 77 | 173 | 0.0 | 0.0 | 0.00 | 0.07 | 0.07 | 82 | 1011.1 |
| 20260903045140 | 77 | 172 | 0.0 | 0.0 | 0.00 | 0.07 | 0.07 | 82 | 1011.3 |
| 20260903044636 | 77 | 173 | 0.0 | 0.0 | 0.00 | 0.07 | 0.07 | 82 | 1011.3 |
| 20260903044131 | 77 | 173 | 0.0 | 0.0 | 0.00 | 0.07 | 0.07 | 81 | 1011.3 |
| 20260903043628 | 77 | 177 | 0.0 | 0.0 | 0.00 | 0.07 | 0.07 | 81 | 1011.4 |
| 20260903043126 | 77 | 177 | 0.0 | 0.0 | 0.00 | 0.07 | 0.07 | 81 | 1011.3 |
| 20260903042621 | 77 | 177 | 0.0 | 0.0 | 0.00 | 0.07 | 0.07 | 80 | 1011.4 |
| 20260903042116 | 77 | 177 | 0.0 | 0.0 | 0.00 | 0.07 | 0.07 | 80 | 1011.4 |
| 20260903041613 | 78 | 177 | 0.0 | 0.0 | 0.00 | 0.07 | 0.07 | 79 | 1011.7 |
| 20260903041108 | 78 | 177 | 0.0 | 0.0 | 0.00 | 0.07 | 0.07 | 79 | 1011.3 |
| 20260903040607 | 78 | 177 | 0.0 | 0.0 | 0.00 | 0.07 | 0.07 | 78 | 1011.4 |
| 20260903040104 | 78 | 169 | 0.0 | 0.0 | 0.00 | 0.07 | 0.07 | 78 | 1011.3 |
| 20260903035559 | 78 | 170 | 0.0 | 0.0 | 0.00 | 0.07 | 0.07 | 78 | 1011.4 |
| 20260903035055 | 78 | 170 | 0.0 | 0.0 | 0.00 | 0.07 | 0.07 | 78 | 1011.3 |
| 20260903034549 | 78 | 170 | 0.0 | 0.0 | 0.00 | 0.07 | 0.07 | 78 | 1011.5 |
| 20260903034044 | 78 | 170 | 0.0 | 0.0 | 0.00 | 0.07 | 0.07 | 78 | 1011.3 |
| 20260903033539 | 78 | 170 | 0.0 | 0.0 | 0.00 | 0.07 | 0.07 | 77 | 1011.6 |
| 20260903033034 | 79 | 170 | 0.0 | 0.0 | 0.00 | 0.07 | 0.07 | 77 | 1011.5 |
| 20260903032530 | 79 | 170 | 0.0 | 0.0 | 0.00 | 0.07 | 0.07 | 76 | 1011.5 |
| 20260903032025 | 79 | 171 | 0.0 | 0.0 | 0.00 | 0.07 | 0.07 | 76 | 1011.4 |
| 20260903031525 | 79 | 171 | 0.0 | 0.0 | 0.00 | 0.07 | 0.07 | 76 | 1011.4 |
| 20260903031020 | 79 | 172 | 0.0 | 0.0 | 0.00 | 0.07 | 0.07 | 76 | 1011.5 |
| 20260903030515 | 79 | 172 | 0.0 | 0.0 | 0.00 | 0.07 | 0.07 | 75 | 1011.3 |
| 20260903030012 | 79 | 172 | 0.0 | 0.0 | 0.00 | 0.07 | 0.07 | 75 | 1011.5 |
| 20260903025507 | 80 | 172 | 0.0 | 1.0 | 0.00 | 0.07 | 0.07 | 74 | 1011.6 |
| 20260903025003 | 80 | 172 | 0.0 | 0.0 | 0.00 | 0.07 | 0.07 | 74 | 1011.6 |
| 20260903024501 | 80 | 172 | 0.0 | 1.0 | 0.00 | 0.07 | 0.07 | 74 | 1011.4 |
| 20260903023956 | 80 | 173 | 0.0 | 1.0 | 0.00 | 0.07 | 0.07 | 74 | 1011.4 |
| 20260903023452 | 80 | 173 | 0.0 | 0.0 | 0.00 | 0.07 | 0.07 | 74 | 1011.4 |
| 20260903022947 | 80 | 174 | 0.0 | 0.0 | 0.00 | 0.07 | 0.07 | 73 | 1011.3 |
| 20260903022446 | 79 | 176 | 0.0 | 0.0 | 0.00 | 0.07 | 0.07 | 74 | 1011.3 |
| 20260903021944 | 79 | 191 | 0.0 | 0.0 | 0.00 | 0.07 | 0.07 | 74 | 1011.2 |
| 20260903021440 | 79 | 191 | 0.0 | 0.0 | 0.00 | 0.07 | 0.07 | 74 | 1011.4 |
| 20260903020935 | 79 | 191 | 0.0 | 0.0 | 0.00 | 0.07 | 0.07 | 73 | 1011.2 |
| 20260903020430 | 79 | 191 | 0.0 | 0.0 | 0.00 | 0.07 | 0.07 | 73 | 1011.3 |
| 20260903015925 | 79 | 191 | 0.0 | 0.0 | 0.00 | 0.07 | 0.07 | 74 | 1011.4 |
| 20260903015421 | 79 | 191 | 0.0 | 0.0 | 0.00 | 0.07 | 0.07 | 74 | 1011.3 |
| 20260903014915 | 79 | 191 | 0.0 | 0.0 | 0.00 | 0.07 | 0.07 | 74 | 1011.4 |
| 20260903014409 | 79 | 191 | 0.0 | 0.0 | 0.00 | 0.07 | 0.07 | 74 | 1011.4 |
| 20260903013905 | 79 | 191 | 0.0 | 0.0 | 0.00 | 0.07 | 0.07 | 74 | 1011.3 |
| 20260903013404 | 79 | 191 | 0.0 | 0.0 | 0.00 | 0.07 | 0.07 | 73 | 1010.9 |
| 20260903012903 | 80 | 191 | 0.0 | 0.0 | 0.00 | 0.07 | 0.07 | 72 | 1011.0 |
| 20260903012403 | 80 | 191 | 0.0 | 0.0 | 0.00 | 0.07 | 0.07 | 72 | 1011.1 |
| 20260903011902 | 80 | 191 | 0.0 | 0.0 | 0.00 | 0.07 | 0.07 | 71 | 1010.9 |
| 20260903011356 | 81 | 191 | 0.0 | 0.0 | 0.00 | 0.07 | 0.07 | 71 | 1010.9 |
| 20260903010852 | 81 | 191 | 0.0 | 0.0 | 0.00 | 0.07 | 0.07 | 70 | 1010.7 |
| 20260903010347 | 81 | 191 | 0.0 | 0.0 | 0.00 | 0.07 | 0.07 | 69 | 1010.7 |
| 20260903005844 | 82 | 191 | 0.0 | 0.0 | 0.00 | 0.07 | 0.07 | 69 | 1010.8 |
| 20260903005335 | 82 | 191 | 0.0 | 0.0 | 0.00 | 0.07 | 0.07 | 68 | 1010.7 |
| 20260903004831 | 83 | 191 | 0.0 | 0.0 | 0.00 | 0.07 | 0.07 | 67 | 1010.7 |
| 20260903004326 | 84 | 191 | 0.0 | 0.0 | 0.00 | 0.07 | 0.07 | 65 | 1010.6 |
| 20260903003822 | 84 | 191 | 0.0 | 0.0 | 0.00 | 0.07 | 0.07 | 64 | 1010.7 |
| 20260903003316 | 84 | 191 | 0.0 | 0.0 | 0.00 | 0.07 | 0.07 | 63 | 1010.7 |
| 20260903002816 | 85 | 191 | 0.0 | 0.0 | 0.00 | 0.07 | 0.07 | 62 | 1010.8 |
| 20260903002316 | 85 | 191 | 0.0 | 0.0 | 0.00 | 0.07 | 0.07 | 61 | 1010.8 |
| 20260903001810 | 86 | 191 | 0.0 | 0.0 | 0.00 | 0.07 | 0.07 | 60 | 1010.9 |
| 20260903001305 | 86 | 191 | 0.0 | 0.0 | 0.00 | 0.07 | 0.07 | 59 | 1010.9 |
| 20260903000800 | 86 | 199 | 0.0 | 0.0 | 0.00 | 0.07 | 0.07 | 59 | 1010.8 |
| 20260903000256 | 86 | 198 | 0.0 | 0.0 | 0.00 | 0.07 | 0.07 | 58 | 1010.9 |
| 20260902235753 | 86 | 205 | 0.0 | 1.0 | 0.00 | 0.07 | 0.07 | 58 | 1010.8 |
| 20260902235248 | 86 | 199 | 0.0 | 0.0 | 0.00 | 0.07 | 0.07 | 57 | 1010.8 |
| 20260902234748 | 87 | 199 | 0.0 | 0.0 | 0.00 | 0.07 | 0.07 | 57 | 1010.8 |
| 20260902234242 | 87 | 190 | 0.0 | 0.0 | 0.00 | 0.07 | 0.07 | 57 | 1010.9 |
| 20260902233742 | 87 | 211 | 1.0 | 2.0 | 0.00 | 0.07 | 0.07 | 57 | 1010.8 |
| 20260902233236 | 87 | 182 | 2.0 | 2.0 | 0.00 | 0.07 | 0.07 | 56 | 1010.8 |
| 20260902232734 | 87 | 192 | 2.0 | 3.0 | 0.00 | 0.07 | 0.07 | 56 | 1010.5 |
| 20260902232228 | 87 | 171 | 0.0 | 1.0 | 0.00 | 0.07 | 0.07 | 55 | 1010.7 |
| 20260902231723 | 87 | 196 | 1.0 | 2.0 | 0.00 | 0.07 | 0.07 | 56 | 1010.8 |
| 20260902231218 | 87 | 209 | 1.0 | 1.0 | 0.00 | 0.07 | 0.07 | 56 | 1010.8 |
| 20260902230713 | 88 | 197 | 1.0 | 2.0 | 0.00 | 0.07 | 0.07 | 55 | 1011.0 |
| 20260902230212 | 88 | 193 | 0.0 | 3.0 | 0.00 | 0.07 | 0.07 | 56 | 1010.9 |
| 20260902225706 | 88 | 174 | 3.0 | 3.0 | 0.00 | 0.07 | 0.07 | 56 | 1010.8 |
| 20260902225201 | 87 | 130 | 0.0 | 2.0 | 0.00 | 0.07 | 0.07 | 56 | 1010.8 |
| 20260902224659 | 88 | 179 | 1.0 | 3.0 | 0.00 | 0.07 | 0.07 | 55 | 1010.9 |
| 20260902224155 | 88 | 174 | 1.0 | 5.0 | 0.00 | 0.07 | 0.07 | 55 | 1010.8 |
| 20260902223651 | 89 | 125 | 3.0 | 3.0 | 0.00 | 0.07 | 0.07 | 54 | 1010.7 |
| 20260902223151 | 89 | 208 | 0.0 | 1.0 | 0.00 | 0.07 | 0.07 | 53 | 1010.8 |
| 20260902222650 | 88 | 204 | 0.0 | 3.0 | 0.00 | 0.07 | 0.07 | 54 | 1011.0 |
| 20260902222149 | 89 | 141 | 0.0 | 1.0 | 0.00 | 0.07 | 0.07 | 53 | 1010.8 |
| 20260902221643 | 89 | 85 | 1.0 | 2.0 | 0.00 | 0.07 | 0.07 | 54 | 1010.8 |
| 20260902221138 | 89 | 205 | 1.0 | 2.0 | 0.00 | 0.07 | 0.07 | 54 | 1010.7 |
| 20260902220634 | 88 | 195 | 0.0 | 1.0 | 0.00 | 0.07 | 0.07 | 54 | 1010.8 |
| 20260902220133 | 89 | 108 | 2.0 | 3.0 | 0.00 | 0.07 | 0.07 | 55 | 1010.9 |
| 20260902215629 | 90 | 212 | 0.0 | 2.0 | 0.00 | 0.07 | 0.07 | 52 | 1011.1 |
| 20260902215125 | 89 | 195 | 1.0 | 1.0 | 0.00 | 0.07 | 0.07 | 53 | 1010.9 |
| 20260902214620 | 89 | 168 | 1.0 | 2.0 | 0.00 | 0.07 | 0.07 | 53 | 1010.9 |
| 20260902214118 | 90 | 206 | 0.0 | 1.0 | 0.00 | 0.07 | 0.07 | 52 | 1011.0 |
| 20260902213615 | 89 | 192 | 1.0 | 2.0 | 0.00 | 0.07 | 0.07 | 53 | 1010.8 |
| 20260902213113 | 89 | 148 | 1.0 | 1.0 | 0.00 | 0.07 | 0.07 | 54 | 1010.9 |
| 20260902212609 | 88 | 164 | 1.0 | 3.0 | 0.00 | 0.07 | 0.07 | 54 | 1011.1 |
| 20260902212105 | 88 | 180 | 1.0 | 2.0 | 0.00 | 0.07 | 0.07 | 54 | 1011.2 |
| 20260902211602 | 88 | 186 | 3.0 | 3.0 | 0.00 | 0.07 | 0.07 | 54 | 1011.1 |
| 20260902211056 | 89 | 167 | 3.0 | 6.0 | 0.00 | 0.07 | 0.07 | 54 | 1011.3 |
| 20260902210555 | 89 | 134 | 2.0 | 5.0 | 0.00 | 0.07 | 0.07 | 54 | 1011.1 |
| 20260902210050 | 90 | 199 | 1.0 | 2.0 | 0.00 | 0.07 | 0.07 | 53 | 1011.2 |
| 20260902205549 | 89 | 200 | 0.0 | 2.0 | 0.00 | 0.07 | 0.07 | 52 | 1011.2 |
| 20260902205044 | 88 | 202 | 4.0 | 5.0 | 0.00 | 0.07 | 0.07 | 54 | 1011.2 |
| 20260902204539 | 88 | 207 | 0.0 | 3.0 | 0.00 | 0.07 | 0.07 | 54 | 1011.2 |
| 20260902204034 | 88 | 108 | 2.0 | 2.0 | 0.00 | 0.07 | 0.07 | 54 | 1011.3 |
| 20260902203529 | 87 | 138 | 1.0 | 3.0 | 0.00 | 0.07 | 0.07 | 55 | 1011.3 |
| 20260902203028 | 87 | 173 | 1.0 | 2.0 | 0.00 | 0.07 | 0.07 | 54 | 1011.3 |
| 20260902202524 | 87 | 210 | 0.0 | 2.0 | 0.00 | 0.07 | 0.07 | 54 | 1011.3 |
| 20260902202020 | 88 | 120 | 2.0 | 3.0 | 0.00 | 0.07 | 0.07 | 54 | 1011.3 |
| 20260902201515 | 88 | 196 | 2.0 | 6.0 | 0.00 | 0.07 | 0.07 | 53 | 1011.5 |
| 20260902201010 | 88 | 192 | 1.0 | 3.0 | 0.00 | 0.07 | 0.07 | 54 | 1011.5 |
| 20260902200505 | 87 | 205 | 0.0 | 1.0 | 0.00 | 0.07 | 0.07 | 54 | 1011.9 |
| 20260902200001 | 87 | 159 | 4.0 | 6.0 | 0.00 | 0.07 | 0.07 | 55 | 1011.8 |
| 20260902195456 | 89 | 192 | 0.0 | 2.0 | 0.00 | 0.07 | 0.07 | 53 | 1011.9 |
| 20260902194949 | 88 | 346 | 2.0 | 2.0 | 0.00 | 0.07 | 0.07 | 53 | 1012.0 |
| 20260902194449 | 88 | 198 | 2.0 | 3.0 | 0.00 | 0.07 | 0.07 | 54 | 1012.0 |
| 20260902193945 | 87 | 172 | 1.0 | 5.0 | 0.00 | 0.07 | 0.07 | 56 | 1012.1 |
| 20260902193440 | 85 | 198 | 0.0 | 2.0 | 0.00 | 0.07 | 0.07 | 57 | 1012.2 |
| 20260902192939 | 87 | 154 | 4.0 | 9.0 | 0.00 | 0.07 | 0.07 | 56 | 1012.1 |
| 20260902192438 | 88 | 215 | 2.0 | 3.0 | 0.00 | 0.07 | 0.07 | 53 | 1012.2 |
| 20260902191937 | 87 | 179 | 0.0 | 2.0 | 0.00 | 0.07 | 0.07 | 56 | 1012.2 |
| 20260902191432 | 86 | 183 | 3.0 | 5.0 | 0.00 | 0.07 | 0.07 | 56 | 1012.3 |
| 20260902190928 | 87 | 146 | 3.0 | 5.0 | 0.00 | 0.07 | 0.07 | 55 | 1012.4 |
| 20260902190423 | 85 | 206 | 0.0 | 3.0 | 0.00 | 0.07 | 0.07 | 57 | 1012.3 |
| 20260902185918 | 85 | 188 | 0.0 | 5.0 | 0.00 | 0.07 | 0.07 | 58 | 1012.2 |
| 20260902185415 | 86 | 108 | 3.0 | 5.0 | 0.00 | 0.07 | 0.07 | 56 | 1012.1 |
| 20260902184909 | 86 | 212 | 2.0 | 3.0 | 0.00 | 0.07 | 0.07 | 57 | 1012.2 |
| 20260902184404 | 85 | 210 | 2.0 | 3.0 | 0.00 | 0.07 | 0.07 | 58 | 1012.3 |
| 20260902183900 | 85 | 242 | 3.0 | 5.0 | 0.00 | 0.07 | 0.07 | 56 | 1012.3 |
| 20260902183356 | 86 | 172 | 3.0 | 3.0 | 0.00 | 0.07 | 0.07 | 55 | 1012.4 |
| 20260902182852 | 84 | 190 | 0.0 | 1.0 | 0.00 | 0.07 | 0.07 | 60 | 1012.1 |
| 20260902182348 | 84 | 289 | 1.0 | 2.0 | 0.00 | 0.07 | 0.07 | 60 | 1012.5 |
| 20260902181844 | 85 | 76 | 2.0 | 5.0 | 0.00 | 0.07 | 0.07 | 60 | 1012.4 |
| 20260902181340 | 84 | 195 | 0.0 | 0.0 | 0.00 | 0.07 | 0.07 | 57 | 1012.5 |
| 20260902180838 | 83 | 197 | 1.0 | 5.0 | 0.00 | 0.07 | 0.07 | 59 | 1012.7 |
| 20260902180335 | 83 | 138 | 3.0 | 5.0 | 0.00 | 0.07 | 0.07 | 59 | 1012.6 |
| 20260902175824 | 83 | 187 | 1.0 | 3.0 | 0.00 | 0.07 | 0.07 | 60 | 1012.6 |
| 20260902175319 | 82 | 141 | 2.0 | 2.0 | 0.00 | 0.07 | 0.07 | 62 | 1012.9 |
| 20260902174815 | 82 | 121 | 2.0 | 3.0 | 0.00 | 0.07 | 0.07 | 62 | 1012.8 |
| 20260902174311 | 82 | 166 | 2.0 | 3.0 | 0.00 | 0.07 | 0.07 | 63 | 1013.0 |
| 20260902173807 | 81 | 187 | 4.0 | 5.0 | 0.00 | 0.07 | 0.07 | 64 | 1013.2 |
| 20260902173301 | 82 | 130 | 3.0 | 5.0 | 0.00 | 0.07 | 0.07 | 63 | 1013.3 |
| 20260902172756 | 81 | 163 | 1.0 | 2.0 | 0.00 | 0.07 | 0.07 | 65 | 1013.3 |
| 20260902172255 | 80 | 150 | 2.0 | 2.0 | 0.00 | 0.07 | 0.07 | 65 | 1013.2 |
| 20260902171750 | 81 | 169 | 3.0 | 3.0 | 0.00 | 0.07 | 0.07 | 64 | 1013.7 |
| 20260902171245 | 80 | 185 | 0.0 | 1.0 | 0.00 | 0.07 | 0.07 | 67 | 1013.5 |
| 20260902170742 | 78 | 206 | 0.0 | 1.0 | 0.00 | 0.07 | 0.07 | 68 | 1014.0 |
| 20260902170237 | 79 | 191 | 3.0 | 3.0 | 0.00 | 0.07 | 0.07 | 67 | 1014.0 |
| 20260902165732 | 79 | 181 | 1.0 | 2.0 | 0.00 | 0.07 | 0.07 | 68 | 1013.8 |
| 20260902165226 | 78 | 211 | 1.0 | 2.0 | 0.00 | 0.07 | 0.07 | 69 | 1014.0 |
| 20260902164726 | 79 | 218 | 2.0 | 2.0 | 0.00 | 0.07 | 0.07 | 68 | 1013.4 |
| 20260902164221 | 77 | 180 | 0.0 | 1.0 | 0.00 | 0.07 | 0.07 | 70 | 1013.4 |
| 20260902163716 | 77 | 138 | 1.0 | 1.0 | 0.00 | 0.07 | 0.07 | 71 | 1013.3 |
| 20260902163216 | 78 | 141 | 0.0 | 2.0 | 0.00 | 0.07 | 0.07 | 69 | 1013.5 |
| 20260902162714 | 78 | 167 | 1.0 | 3.0 | 0.00 | 0.07 | 0.07 | 70 | 1013.4 |
| 20260902162209 | 78 | 185 | 0.0 | 1.0 | 0.00 | 0.07 | 0.07 | 69 | 1013.5 |
| 20260902161704 | 77 | 178 | 1.0 | 2.0 | 0.00 | 0.07 | 0.07 | 70 | 1013.5 |
| 20260902161159 | 77 | 165 | 0.0 | 0.0 | 0.00 | 0.07 | 0.07 | 70 | 1013.4 |
| 20260902160656 | 77 | 197 | 2.0 | 2.0 | 0.00 | 0.07 | 0.07 | 69 | 1013.4 |
| 20260902160150 | 79 | 115 | 2.0 | 5.0 | 0.00 | 0.07 | 0.07 | 67 | 1013.5 |
| 20260902155649 | 77 | 175 | 0.0 | 1.0 | 0.00 | 0.07 | 0.07 | 68 | 1013.3 |
| 20260902155148 | 77 | 167 | 1.0 | 2.0 | 0.00 | 0.07 | 0.07 | 70 | 1013.3 |
| 20260902154643 | 78 | 192 | 3.0 | 5.0 | 0.00 | 0.07 | 0.07 | 68 | 1013.2 |
| 20260902154137 | 77 | 170 | 1.0 | 2.0 | 0.00 | 0.07 | 0.07 | 68 | 1013.1 |
| 20260902153637 | 77 | 186 | 2.0 | 3.0 | 0.00 | 0.07 | 0.07 | 70 | 1013.2 |
| 20260902153132 | 76 | 190 | 1.0 | 2.0 | 0.00 | 0.07 | 0.07 | 71 | 1013.1 |
| 20260902152628 | 75 | 167 | 1.0 | 2.0 | 0.00 | 0.07 | 0.07 | 73 | 1013.2 |
| 20260902152123 | 75 | 172 | 0.0 | 2.0 | 0.00 | 0.07 | 0.07 | 74 | 1013.0 |
| 20260902151619 | 75 | 82 | 2.0 | 6.0 | 0.00 | 0.07 | 0.07 | 73 | 1013.1 |
| 20260902151118 | 75 | 170 | 1.0 | 2.0 | 0.00 | 0.07 | 0.07 | 74 | 1013.1 |
| 20260902150614 | 74 | 157 | 3.0 | 5.0 | 0.00 | 0.07 | 0.07 | 74 | 1013.2 |
| 20260902150109 | 75 | 193 | 1.0 | 2.0 | 0.00 | 0.07 | 0.07 | 73 | 1013.2 |
| 20260902145604 | 74 | 161 | 1.0 | 5.0 | 0.00 | 0.07 | 0.07 | 74 | 1012.9 |
| 20260902145104 | 74 | 158 | 2.0 | 2.0 | 0.00 | 0.07 | 0.07 | 75 | 1013.0 |
| 20260902144600 | 72 | 156 | 2.0 | 5.0 | 0.00 | 0.07 | 0.07 | 77 | 1013.2 |
| 20260902144054 | 72 | 121 | 1.0 | 2.0 | 0.00 | 0.07 | 0.07 | 77 | 1013.0 |
| 20260902143544 | 72 | 133 | 1.0 | 3.0 | 0.00 | 0.07 | 0.07 | 78 | 1013.1 |
| 20260902143039 | 73 | 160 | 2.0 | 2.0 | 0.00 | 0.07 | 0.07 | 76 | 1013.2 |
| 20260902142535 | 72 | 156 | 0.0 | 1.0 | 0.00 | 0.07 | 0.07 | 79 | 1013.4 |
| 20260902142030 | 71 | 170 | 0.0 | 0.0 | 0.00 | 0.07 | 0.07 | 80 | 1013.7 |
| 20260902141530 | 71 | 135 | 1.0 | 3.0 | 0.00 | 0.07 | 0.07 | 80 | 1013.5 |
| 20260902141025 | 71 | 151 | 1.0 | 2.0 | 0.00 | 0.07 | 0.07 | 80 | 1013.4 |
| 20260902140519 | 69 | 107 | 2.0 | 2.0 | 0.00 | 0.07 | 0.07 | 82 | 1013.4 |
| 20260902140015 | 69 | 149 | 1.0 | 3.0 | 0.00 | 0.07 | 0.07 | 83 | 1013.5 |
| 20260902135509 | 69 | 103 | 3.0 | 5.0 | 0.00 | 0.07 | 0.07 | 84 | 1013.7 |
| 20260902135004 | 69 | 151 | 1.0 | 1.0 | 0.00 | 0.07 | 0.07 | 84 | 1013.3 |
| 20260902134500 | 68 | 167 | 1.0 | 2.0 | 0.00 | 0.07 | 0.07 | 85 | 1013.4 |
| 20260902133959 | 68 | 168 | 1.0 | 2.0 | 0.00 | 0.07 | 0.07 | 86 | 1013.3 |